Current | Forecast
Updated: 6:00 PM +10 on April 27, 2018
Observed at Port Moresby Airport, Papua New Guinea
Temperature 81°F
Humidity 89%
Dew Point 77°F
Wind SE at 17 mph
Pressure 29.80 in (Steady)
Conditions Scattered Clouds
Visibility 6.2 miles
UV 0 out of 16
Clouds Scattered Clouds (SCT) : 2500 ft
Scattered Clouds (SCT) : 5000 ft
Yesterday's Maximum 90°F
Yesterday's Minimum 77°F approx.
Yesterday's Cooling Degree Days 18 approx.
Sunrise6:14 AM +10
Sunset6:02 PM +10
Moon Rise4:09 PM +10
Moon Set3:38 AM +10
Moon PhaseMoon Phase
Waxing Gibbous
Raw METARMETAR AYPY 270800Z 13015KT 9999 SCT025 SCT050 27/25 Q1009 RMKS: BUPS IN AREA


Monday
. High: 86° F.
Tuesday
. High: 86° F.
Wednesday
. High: 84° F.
Thursday
. High: 86° F.
Friday
. High: 86° F.
Saturday
. High: 87° F.
Sunday
. High: 86° F.
Monday
. High: 87° F.

Units: English | Metric

Find the Weather for any City, State or Zipcode, or Country:

U.S. State List | Severe Weather | Tropical Storms | Ski Conditions
United States | Canada | Central America | South America | Asia | Europe | Australia | Africa | Islands

Weather Underground

© Copyright 2018
The Weather Company, LLC